Terminal Aerodrome Forecast
Issued by NWS

Home | Current Version | Previous Version | Text Only | Print | Product List | Glossary On
Versions: 1 2 3 4 5 6 7 8 9 10 11 12 13 14 15 16 17 18 19 20 21 22 23 24 25 26 27 28 29
000
FTAK31 PANC 221747
TAFASD
TAF
PASD 221747Z 2218/2318 21010KT P6SM SCT025 BKN050
     FM222000 19015G25KT 5SM -RA SCT010 OVC020
     FM230200 27027G35KT P6SM VCSH SCT030 BKN050
     FM231000 28035G45KT 6SM -SHRA SCT020 OVC030
     FM231600 29040G54KT 5SM -SHRA SCT020 OVC030
      AMD LTD TO CLD VIS AND WIND=

USA.gov is the U.S. government's official web portal to all federal, state and local government web resources and services.